METAR Data
IDs: Format: Raw Decoded Include TAF

Data at: 2146 UTC 18 Sep 2018

KHSV 182053Z VRB04KT 10SM FEW050 SCT120 34/19 A2992 RMK AO2 SLP124 T03440189 56020
KHSV 181953Z VRB06KT 10SM FEW050 SCT070 34/18 A2993 RMK AO2 SLP127 T03440178
KHSV 181853Z 00000KT 10SM FEW050 33/18 A2996 RMK AO2 SLP135 T03330183
KHSV 181753Z 00000KT 10SM SCT048 33/20 A2998 RMK AO2 SLP145 T03280200 10328 20211 58016
KHSV 181653Z VRB03KT 10SM SCT040 32/21 A3001 RMK AO2 SLP153 T03220211
KHSV 181553Z VRB03KT 10SM FEW036 31/21 A3003 RMK AO2 SLP158 T03110211
KHSV 181453Z 29003KT 10SM FEW028 29/22 A3003 RMK AO2 SLP161 T02890222 51006
KHSV 181353Z 00000KT 10SM FEW250 26/22 A3003 RMK AO2 SLP162 T02560222
KHSV 181253Z 00000KT 10SM FEW250 23/22 A3003 RMK AO2 SLP160 T02280222
KHSV 181153Z 00000KT 10SM FEW003 SCT250 21/21 A3002 RMK AO2 SLP156 T02110211 10222 20206 53008
KHSV 181107Z 00000KT 3SM BCFG BR FEW001 FEW250 21/21 A3001 RMK AO2 TWR VIS 10 VIS SW-NW 1 T02110206
KHSV 181053Z 00000KT 3/4SM R18R/P6000FT BR FEW001 FEW250 21/21 A3001 RMK AO2 SLP153 T02110206
KHSV 181048Z 00000KT 1/2SM R18R/P6000FT FG SCT001 21/21 A3001 RMK AO2
KHSV 181036Z AUTO 00000KT 10SM FEW002 21/21 A3000 RMK AO2 T02110206
KHSV 180953Z AUTO 00000KT 10SM CLR 22/21 A3000 RMK AO2 SLP149 T02170211
KHSV 180853Z AUTO 00000KT 10SM CLR 22/21 A2999 RMK AO2 SLP146 T02220211 52001
KHSV 180753Z AUTO 00000KT 10SM CLR 22/21 A2999 RMK AO2 SLP147 T02170211
KHSV 180653Z AUTO 32003KT 10SM CLR 22/21 A2999 RMK AO2 SLP147 T02220211
KHSV 180553Z AUTO 00000KT 10SM CLR 22/22 A2999 RMK AO2 SLP146 T02220217 10294 20222 403330217 50002
KHSV 180453Z 00000KT 10SM CLR 24/22 A2999 RMK AO2 SLP148 T02390217
KHSV 180353Z 07003KT 10SM CLR 26/22 A2999 RMK AO2 SLP145 T02560217
KHSV 180253Z 05005KT 10SM FEW070 26/22 A2998 RMK AO2 SLP144 T02560217 53014
KHSV 180153Z 06003KT 10SM FEW070 26/22 A2997 RMK AO2 SLP140 T02610217
KHSV 180053Z 03003KT 10SM SCT070 28/21 A2995 RMK AO2 SLP133 T02780211
KHSV 172353Z 01004KT 10SM FEW070 SCT150 29/21 A2994 RMK AO2 SLP130 T02940211 10333 20294 53001
KHSV 172253Z 02005KT 10SM SCT065 BKN150 31/21 A2994 RMK AO2 SLP130 T03110211
KHSV 172153Z 04009KT 10SM SCT065 SCT160 31/21 A2994 RMK AO2 SLP129 T03110211
KHSV 172053Z 33005KT 10SM SCT050 BKN160 32/21 A2994 RMK AO2 SLP128 T03220206 56013
KHSV 171953Z 33007KT 280V360 10SM BKN043 BKN160 31/21 A2994 RMK AO2 SLP130 T03110206
KHSV 171853Z 00000KT 10SM FEW040 BKN160 31/21 A2996 RMK AO2 SLP135 T03110211
KHSV 171753Z VRB03KT 10SM SCT036 BKN150 31/21 A2997 RMK AO2 SLP142 T03060211 10306 20222 58003
KHSV 171653Z VRB04KT 10SM SCT030 BKN150 29/21 A2998 RMK AO2 SLP145 T02890206
KHSV 171553Z VRB04KT 10SM SCT023 BKN150 BKN220 28/22 A2999 RMK AO2 SLP147 T02830217
KHSV 171453Z 27004KT 10SM FEW020 FEW150 BKN220 27/22 A2998 RMK AO2 SLP145 T02720217 51015
KHSV 171353Z 30004KT 10SM FEW025 BKN150 25/22 A2997 RMK AO2 SLP141 T02500217
KHSV 171253Z 30004KT 10SM BKN150 BKN220 24/22 A2996 RMK AO2 SLP137 T02440217
KHSV 171153Z 00000KT 10SM BKN130 BKN160 22/22 A2994 RMK AO2 SLP130 T02220217 10233 20217 53013
KHSV 171053Z 22003KT 10SM BKN120 BKN160 22/21 A2993 RMK AO2 SLP126 T02220211
KHSV 170953Z AUTO 29003KT 10SM CLR 22/21 A2991 RMK AO2 SLP119 T02220211